Time;durP1;ratioP1;P1;durP2;ratioP2;P2;SDS_P1;SDS_P2;PMS_P1;PMS_P2;Temp;Humidity;BMP_temperature;BMP_pressure;BME280_temperature;BME280_humidity;BME280_pressure;Samples;Min_cycle;Max_cycle;Signal;HPM_P1;HPM_P2
2021/01/21 00:01:52;;;;;;;4.73;3.83;;;6.60;99.90;;;;;;5094628;28;20504;-73
2021/01/21 00:04:19;;;;;;;6.13;3.90;;;6.60;99.90;;;;;;5094712;28;20567;-73
2021/01/21 00:06:45;;;;;;;5.20;4.00;;;6.60;99.90;;;;;;5094167;28;20481;-73
2021/01/21 00:09:14;;;;;;;5.60;4.00;;;6.60;99.90;;;;;;5093786;28;20473;-73
2021/01/21 00:11:40;;;;;;;10.40;5.07;;;6.60;99.90;;;;;;5093728;28;20486;-73
2021/01/21 00:14:06;;;;;;;8.10;6.80;;;6.50;99.90;;;;;;5094247;28;20491;-73
2021/01/21 00:16:33;;;;;;;7.63;6.40;;;6.50;99.90;;;;;;5093609;28;20962;-73
2021/01/21 00:18:59;;;;;;;8.27;7.40;;;6.40;99.90;;;;;;5093965;28;20624;-72
2021/01/21 00:21:25;;;;;;;7.90;6.97;;;6.40;99.90;;;;;;5093417;28;20470;-73
2021/01/21 00:23:52;;;;;;;7.80;6.47;;;6.30;99.90;;;;;;5093680;28;20452;-73
2021/01/21 00:26:19;;;;;;;9.40;6.37;;;6.20;99.90;;;;;;5093760;28;20521;-73
2021/01/21 00:28:45;;;;;;;8.27;7.37;;;6.20;99.90;;;;;;5093712;28;20457;-73
2021/01/21 00:31:12;;;;;;;8.70;7.80;;;6.10;99.90;;;;;;5092973;28;20553;-73
2021/01/21 00:33:38;;;;;;;9.50;7.57;;;6.10;99.90;;;;;;5093680;28;20553;-73
2021/01/21 00:36:05;;;;;;;10.33;6.70;;;6.00;99.90;;;;;;5093420;28;20445;-73
2021/01/21 00:38:31;;;;;;;8.50;6.67;;;6.00;99.90;;;;;;5093709;28;20533;-74
2021/01/21 00:40:58;;;;;;;7.93;6.70;;;5.90;99.90;;;;;;5093450;28;20545;-73
2021/01/21 00:43:25;;;;;;;7.40;6.70;;;6.00;99.90;;;;;;5093399;28;20486;-73
2021/01/21 00:45:51;;;;;;;10.17;7.47;;;5.90;99.90;;;;;;5093376;28;20473;-73
2021/01/21 00:48:18;;;;;;;8.10;7.07;;;5.90;99.90;;;;;;5093402;28;20541;-73
2021/01/21 00:50:44;;;;;;;7.90;7.03;;;5.90;99.90;;;;;;5092973;28;20940;-73
2021/01/21 00:53:11;;;;;;;6.73;5.63;;;6.00;99.90;;;;;;5091208;28;20521;-75
2021/01/21 00:55:37;;;;;;;10.10;6.87;;;6.10;99.90;;;;;;5093322;28;20525;-73
2021/01/21 00:58:03;;;;;;;6.77;5.53;;;6.10;99.90;;;;;;5092369;28;20504;-73
2021/01/21 01:00:31;;;;;;;8.17;5.90;;;6.00;99.90;;;;;;5092341;28;20525;-73
2021/01/21 01:02:57;;;;;;;8.00;5.93;;;6.00;99.90;;;;;;5094036;28;20520;-73
2021/01/21 01:05:24;;;;;;;6.20;5.60;;;6.00;99.90;;;;;;5093688;28;20527;-73
2021/01/21 01:07:50;;;;;;;6.87;6.20;;;6.00;99.90;;;;;;5094702;28;20560;-73
2021/01/21 01:10:17;;;;;;;7.20;5.93;;;6.10;99.90;;;;;;5092784;28;20484;-72
2021/01/21 01:12:43;;;;;;;9.30;6.33;;;6.10;99.90;;;;;;5093191;28;20565;-73
2021/01/21 01:15:10;;;;;;;8.63;7.10;;;6.10;99.90;;;;;;5092554;28;20510;-73
2021/01/21 01:17:38;;;;;;;7.30;5.83;;;6.10;99.90;;;;;;5093231;28;20506;-72
2021/01/21 01:20:05;;;;;;;8.87;7.33;;;6.10;99.90;;;;;;5092288;28;20529;-73
2021/01/21 01:22:32;;;;;;;8.20;6.07;;;6.10;99.90;;;;;;5092234;28;20554;-73
2021/01/21 01:24:59;;;;;;;8.07;6.53;;;6.10;99.90;;;;;;5092786;28;20500;-73
2021/01/21 01:27:25;;;;;;;8.03;6.80;;;6.20;99.90;;;;;;5092451;28;21017;-72
2021/01/21 01:29:52;;;;;;;8.60;6.53;;;6.10;99.90;;;;;;5092048;28;20445;-73
2021/01/21 01:32:18;;;;;;;8.57;6.10;;;6.20;99.90;;;;;;5092496;28;20550;-72
2021/01/21 01:34:45;;;;;;;8.97;7.17;;;6.20;99.90;;;;;;5092302;28;20453;-73
2021/01/21 01:37:11;;;;;;;9.07;7.10;;;6.20;99.90;;;;;;5092312;28;20870;-72
2021/01/21 01:39:38;;;;;;;8.30;5.80;;;6.20;99.90;;;;;;5091907;28;20481;-73
2021/01/21 01:42:09;;;;;;;7.90;6.67;;;6.10;99.90;;;;;;5091958;28;20511;-73
2021/01/21 01:44:35;;;;;;;7.43;6.53;;;6.10;99.90;;;;;;5092406;28;20470;-73
2021/01/21 01:47:01;;;;;;;8.40;6.53;;;6.10;99.90;;;;;;5091887;28;20569;-73
2021/01/21 01:49:28;;;;;;;8.63;6.20;;;6.10;99.90;;;;;;5091755;28;20486;-73
2021/01/21 01:51:55;;;;;;;9.33;6.87;;;6.10;99.90;;;;;;5091836;28;20537;-73
2021/01/21 01:54:22;;;;;;;9.60;6.77;;;6.00;99.90;;;;;;5091758;28;20525;-73
2021/01/21 01:56:48;;;;;;;8.77;7.27;;;6.00;99.90;;;;;;5091928;28;20529;-73
2021/01/21 01:59:16;;;;;;;9.60;7.30;;;6.00;99.90;;;;;;5091446;28;20474;-73
2021/01/21 02:01:43;;;;;;;13.93;8.43;;;6.00;99.90;;;;;;5092248;28;20446;-73
2021/01/21 02:04:09;;;;;;;8.80;7.57;;;6.10;99.90;;;;;;5091466;28;21004;-72
2021/01/21 02:06:35;;;;;;;7.50;6.50;;;6.10;99.90;;;;;;5091836;28;20605;-73
2021/01/21 02:09:03;;;;;;;7.20;6.53;;;6.10;99.90;;;;;;5091252;28;20450;-73
2021/01/21 02:11:43;;;;;;;9.57;6.90;;;6.10;99.90;;;;;;5091545;28;20517;-73
2021/01/21 02:14:17;;;;;;;8.73;6.70;;;6.20;99.90;;;;;;5091851;28;20521;-73
2021/01/21 02:16:58;;;;;;;9.10;5.60;;;6.20;99.90;;;;;;5091234;28;20450;-73
2021/01/21 02:20:02;;;;;;;7.30;5.73;;;6.30;99.90;;;;;;5091521;28;20482;-73
2021/01/21 02:23:16;;;;;;;10.00;5.47;;;6.40;99.90;;;;;;5091726;28;21024;-72
2021/01/21 02:25:50;;;;;;;6.47;4.50;;;6.50;99.90;;;;;;5091475;28;21031;-72
2021/01/21 02:28:34;;;;;;;4.47;4.03;;;6.60;99.90;;;;;;5091161;28;20510;-72
2021/01/21 02:31:04;;;;;;;4.70;3.70;;;6.80;99.90;;;;;;5089352;28;20444;-72
2021/01/21 02:33:55;;;;;;;4.67;3.90;;;6.90;99.90;;;;;;5091069;28;20454;-73
2021/01/21 02:36:28;;;;;;;5.97;4.27;;;6.90;99.90;;;;;;5091025;28;20525;-72
2021/01/21 02:38:56;;;;;;;5.60;4.60;;;7.00;99.90;;;;;;5091132;28;20450;-72
2021/01/21 02:41:24;;;;;;;5.63;4.53;;;7.10;99.90;;;;;;5090813;28;20442;-72
2021/01/21 02:43:54;;;;;;;6.30;4.33;;;7.10;99.90;;;;;;5091174;28;20533;-72
2021/01/21 02:46:21;;;;;;;5.60;4.70;;;7.10;99.90;;;;;;5090917;28;20482;-73
2021/01/21 02:48:50;;;;;;;4.47;3.70;;;7.20;99.90;;;;;;5091125;28;20536;-73
2021/01/21 02:51:24;;;;;;;4.30;3.53;;;7.20;99.90;;;;;;5090711;28;20840;-72
2021/01/21 02:54:02;;;;;;;4.87;4.00;;;7.20;99.90;;;;;;5091210;28;20446;-72
2021/01/21 02:56:32;;;;;;;4.17;2.97;;;7.30;99.90;;;;;;5090715;28;20442;-72
2021/01/21 02:59:02;;;;;;;4.37;3.37;;;7.30;99.90;;;;;;5090654;28;20442;-72
2021/01/21 03:01:31;;;;;;;4.60;2.83;;;7.30;99.90;;;;;;5090683;28;21007;-73
2021/01/21 03:04:01;;;;;;;3.50;3.20;;;7.30;99.90;;;;;;5090930;28;20446;-72
2021/01/21 03:06:29;;;;;;;4.00;3.17;;;7.30;99.90;;;;;;5090744;28;20496;-72
2021/01/21 03:08:58;;;;;;;5.07;3.57;;;7.40;99.90;;;;;;5090348;28;20509;-72
2021/01/21 03:11:25;;;;;;;3.53;3.07;;;7.30;99.90;;;;;;5089614;28;20532;-72
2021/01/21 03:13:52;;;;;;;9.23;3.00;;;7.40;99.90;;;;;;5090262;28;20493;-73
2021/01/21 03:16:18;;;;;;;4.90;2.67;;;7.30;99.90;;;;;;5092113;28;20449;-72
2021/01/21 03:18:49;;;;;;;3.17;2.73;;;7.40;99.90;;;;;;5094028;28;20557;-72
2021/01/21 03:21:17;;;;;;;4.20;3.00;;;7.40;99.90;;;;;;5093584;28;20468;-72
2021/01/21 03:23:44;;;;;;;4.40;2.93;;;7.50;99.90;;;;;;5094247;28;20472;-72
2021/01/21 03:26:10;;;;;;;5.20;2.33;;;7.50;99.90;;;;;;5094296;28;20470;-72
2021/01/21 03:28:37;;;;;;;3.43;2.70;;;7.50;99.90;;;;;;5094144;28;20524;-72
2021/01/21 03:31:03;;;;;;;3.63;2.47;;;7.50;99.90;;;;;;5093678;28;20450;-72
2021/01/21 03:33:30;;;;;;;4.10;3.27;;;7.40;99.90;;;;;;5093871;28;20882;-72
2021/01/21 03:35:56;;;;;;;3.07;2.40;;;7.50;99.90;;;;;;5092880;28;20495;-72
2021/01/21 03:38:23;;;;;;;3.20;2.03;;;7.70;99.90;;;;;;5093647;28;20473;-72
2021/01/21 03:40:49;;;;;;;2.97;2.20;;;7.80;99.90;;;;;;5093203;28;20933;-72
2021/01/21 03:43:16;;;;;;;3.80;2.53;;;7.80;99.90;;;;;;5093814;28;20928;-72
2021/01/21 03:45:42;;;;;;;3.10;2.07;;;7.90;99.90;;;;;;5093837;28;20445;-72
2021/01/21 03:48:09;;;;;;;4.53;2.70;;;8.10;99.90;;;;;;5093545;28;20485;-72
2021/01/21 03:50:35;;;;;;;2.87;2.37;;;8.20;99.90;;;;;;5092935;28;20603;-72
2021/01/21 03:53:02;;;;;;;3.80;2.30;;;8.20;99.90;;;;;;5093546;28;20468;-72
2021/01/21 03:55:29;;;;;;;5.10;2.87;;;8.20;99.90;;;;;;5093623;28;20442;-72
2021/01/21 03:57:55;;;;;;;3.73;3.13;;;8.20;99.90;;;;;;5093529;28;20547;-72
2021/01/21 04:00:22;;;;;;;4.07;3.33;;;8.20;99.90;;;;;;5092962;28;20442;-72
2021/01/21 04:02:48;;;;;;;3.93;2.80;;;8.10;99.90;;;;;;5093381;28;20561;-72
2021/01/21 04:05:15;;;;;;;5.30;3.33;;;8.10;99.90;;;;;;5093168;28;20434;-71
2021/01/21 04:07:41;;;;;;;3.70;2.63;;;8.00;99.90;;;;;;5092539;28;20573;-72
2021/01/21 04:10:09;;;;;;;3.40;3.00;;;8.00;99.90;;;;;;5091638;28;21200;-72
2021/01/21 04:12:36;;;;;;;4.03;2.80;;;8.00;99.90;;;;;;5093010;28;20480;-72
2021/01/21 04:15:03;;;;;;;5.03;3.43;;;8.00;99.90;;;;;;5093009;28;20537;-72
2021/01/21 04:17:29;;;;;;;7.60;3.00;;;7.80;99.90;;;;;;5092942;28;20534;-72
2021/01/21 04:19:55;;;;;;;5.50;4.20;;;7.70;99.90;;;;;;5092817;28;20601;-72
2021/01/21 04:22:22;;;;;;;4.50;2.87;;;7.70;99.90;;;;;;5092857;28;20462;-72
2021/01/21 04:24:48;;;;;;;4.33;3.00;;;7.80;99.90;;;;;;5093023;28;20532;-72
2021/01/21 04:27:14;;;;;;;3.73;2.70;;;7.70;99.90;;;;;;5092583;28;20567;-73
2021/01/21 04:29:42;;;;;;;4.50;2.77;;;7.60;99.90;;;;;;5092526;28;20500;-72
2021/01/21 04:32:08;;;;;;;4.03;3.10;;;7.50;99.90;;;;;;5092790;28;20905;-72
2021/01/21 04:34:34;;;;;;;6.33;3.50;;;7.50;99.90;;;;;;5092964;28;20452;-72
2021/01/21 04:37:01;;;;;;;3.87;3.23;;;7.40;99.90;;;;;;5092808;28;20868;-72
2021/01/21 04:39:27;;;;;;;5.43;2.93;;;7.40;99.90;;;;;;5092250;28;20541;-72
2021/01/21 04:41:53;;;;;;;5.50;3.10;;;7.40;99.90;;;;;;5092543;28;20509;-72
2021/01/21 04:44:20;;;;;;;4.20;3.00;;;7.40;99.90;;;;;;5093313;28;20516;-72
2021/01/21 04:46:47;;;;;;;4.37;2.77;;;7.40;99.90;;;;;;5092344;28;20569;-72
2021/01/21 04:49:15;;;;;;;4.10;3.40;;;7.50;99.90;;;;;;5092025;28;20534;-72
2021/01/21 04:51:43;;;;;;;3.60;2.87;;;7.50;99.90;;;;;;5092416;28;20529;-72
2021/01/21 04:54:11;;;;;;;4.50;3.10;;;7.50;99.90;;;;;;5092623;28;20529;-72
2021/01/21 04:56:40;;;;;;;6.33;3.13;;;7.60;99.90;;;;;;5092390;28;20435;-72
2021/01/21 04:59:10;;;;;;;5.00;2.90;;;7.60;99.90;;;;;;5091835;28;20869;-72
2021/01/21 05:01:39;;;;;;;4.13;2.73;;;7.60;99.90;;;;;;5092530;28;20823;-72
2021/01/21 05:04:07;;;;;;;4.60;3.20;;;7.60;99.90;;;;;;5092650;28;20438;-74
2021/01/21 05:06:35;;;;;;;4.73;2.87;;;7.50;99.90;;;;;;5092367;28;20478;-72
2021/01/21 05:09:03;;;;;;;4.90;3.00;;;7.60;99.90;;;;;;5092289;28;20529;-72
2021/01/21 05:11:29;;;;;;;6.93;3.40;;;7.60;99.90;;;;;;5091601;28;20446;-72
2021/01/21 05:13:55;;;;;;;6.20;2.80;;;7.60;99.90;;;;;;5091961;28;20874;-72
2021/01/21 05:16:22;;;;;;;4.90;2.87;;;7.50;99.90;;;;;;5092623;28;20446;-72
2021/01/21 05:18:49;;;;;;;4.73;3.00;;;7.40;99.90;;;;;;5092776;28;20502;-72
2021/01/21 05:21:17;;;;;;;4.40;2.70;;;7.40;99.90;;;;;;5091969;28;20473;-72
2021/01/21 05:23:44;;;;;;;5.53;2.50;;;7.30;99.90;;;;;;5092568;28;20516;-72
2021/01/21 05:26:12;;;;;;;7.23;3.10;;;7.30;99.90;;;;;;5092596;28;20452;-72
2021/01/21 05:28:39;;;;;;;5.53;2.63;;;7.20;99.90;;;;;;5092938;28;20452;-72
2021/01/21 05:31:06;;;;;;;6.13;2.40;;;7.20;99.90;;;;;;5092098;28;20891;-72
2021/01/21 05:33:35;;;;;;;7.70;3.40;;;7.20;99.90;;;;;;5092813;28;20549;-72
2021/01/21 05:36:05;;;;;;;4.93;3.00;;;7.30;99.90;;;;;;5092593;28;20438;-72
2021/01/21 05:38:32;;;;;;;5.20;1.73;;;7.30;99.90;;;;;;5090834;28;20435;-72
2021/01/21 05:40:59;;;;;;;4.70;2.13;;;7.40;99.90;;;;;;5090479;28;20451;-72
2021/01/21 05:43:27;;;;;;;3.27;1.77;;;7.40;99.90;;;;;;5091119;28;20932;-73
2021/01/21 05:45:53;;;;;;;3.23;1.40;;;7.50;99.90;;;;;;5090997;28;20446;-73
2021/01/21 05:48:19;;;;;;;3.40;2.27;;;7.60;99.90;;;;;;5090806;28;20912;-72
2021/01/21 05:50:47;;;;;;;6.50;1.80;;;7.70;99.90;;;;;;5090317;28;20446;-73
2021/01/21 05:53:14;;;;;;;3.43;1.50;;;7.90;99.90;;;;;;5090810;28;20992;-73
2021/01/21 05:55:41;;;;;;;2.37;1.50;;;8.10;99.90;;;;;;5090627;28;20901;-73
2021/01/21 05:58:10;;;;;;;3.50;1.30;;;8.30;99.90;;;;;;5090832;28;20948;-72
2021/01/21 06:00:38;;;;;;;2.83;1.40;;;8.50;99.90;;;;;;5090232;28;20452;-72
2021/01/21 06:03:05;;;;;;;3.70;1.50;;;8.80;99.90;;;;;;5090737;28;20523;-72
2021/01/21 06:05:32;;;;;;;2.57;1.40;;;9.00;99.90;;;;;;5090305;28;20442;-72
2021/01/21 06:07:59;;;;;;;1.87;1.00;;;9.10;99.90;;;;;;5089291;28;20478;-73
2021/01/21 06:10:26;;;;;;;2.33;1.40;;;9.30;99.90;;;;;;5090174;28;20442;-73
2021/01/21 06:12:54;;;;;;;2.73;1.13;;;9.30;99.90;;;;;;5083530;28;20454;-75
2021/01/21 06:15:21;;;;;;;2.07;1.03;;;9.40;99.80;;;;;;5074334;28;21051;-75
2021/01/21 06:17:49;;;;;;;1.93;1.07;;;9.50;99.80;;;;;;5088141;28;20442;-75
2021/01/21 06:20:16;;;;;;;2.33;1.20;;;9.50;99.90;;;;;;5088385;28;20450;-74
2021/01/21 06:22:45;;;;;;;2.03;1.00;;;9.60;99.40;;;;;;5089487;28;20493;-75
2021/01/21 06:25:13;;;;;;;1.80;0.90;;;9.70;99.00;;;;;;5089102;28;20521;-76
2021/01/21 06:27:41;;;;;;;1.97;1.10;;;9.80;98.90;;;;;;5089251;28;20482;-75
2021/01/21 06:30:11;;;;;;;3.00;1.10;;;9.80;98.10;;;;;;5088343;28;20545;-76
2021/01/21 06:32:43;;;;;;;3.60;1.20;;;9.90;98.60;;;;;;5089618;28;20524;-74
2021/01/21 06:35:12;;;;;;;4.00;1.03;;;9.90;98.30;;;;;;5088931;28;20521;-73
2021/01/21 06:37:40;;;;;;;9.30;1.23;;;9.90;97.80;;;;;;5088645;28;20442;-73
2021/01/21 06:40:09;;;;;;;2.53;1.27;;;10.10;96.90;;;;;;5087955;28;20456;-74
2021/01/21 06:42:37;;;;;;;3.00;1.10;;;10.10;97.00;;;;;;5088845;28;20462;-74
2021/01/21 06:45:05;;;;;;;1.87;1.00;;;10.20;96.40;;;;;;5085874;28;20533;-73
2021/01/21 06:47:33;;;;;;;3.80;1.00;;;10.20;95.90;;;;;;5087572;28;20474;-75
2021/01/21 06:50:01;;;;;;;2.97;1.00;;;10.30;96.40;;;;;;5086243;28;21000;-75
2021/01/21 06:52:31;;;;;;;2.30;1.10;;;10.30;96.00;;;;;;5088038;28;21197;-75
2021/01/21 06:55:01;;;;;;;1.83;1.23;;;10.30;95.90;;;;;;5087833;28;20537;-75
2021/01/21 06:57:43;;;;;;;1.93;1.03;;;10.30;96.60;;;;;;5087837;28;20466;-74
2021/01/21 07:00:12;;;;;;;2.07;1.10;;;10.20;96.50;;;;;;5086503;28;20446;-75
2021/01/21 07:02:50;;;;;;;1.87;0.90;;;10.20;96.40;;;;;;5087829;28;21116;-76
2021/01/21 07:05:18;;;;;;;3.13;1.13;;;10.20;96.50;;;;;;5086786;28;20851;-74
2021/01/21 07:07:59;;;;;;;1.87;0.90;;;10.30;96.70;;;;;;5087720;28;20688;-75
2021/01/21 07:10:28;;;;;;;3.80;1.47;;;10.40;96.80;;;;;;5086672;28;20731;-75
2021/01/21 07:12:55;;;;;;;3.80;1.07;;;10.40;97.10;;;;;;5088053;28;20582;-76
2021/01/21 07:15:30;;;;;;;5.03;1.30;;;10.40;97.60;;;;;;5087831;28;20515;-74
2021/01/21 07:18:02;;;;;;;2.03;1.10;;;10.40;97.50;;;;;;5067321;28;20445;-72
2021/01/21 07:20:31;;;;;;;2.00;1.30;;;10.50;97.90;;;;;;5063451;28;20447;-74
2021/01/21 07:23:03;;;;;;;1.47;0.90;;;10.60;98.60;;;;;;5065495;28;20451;-74
2021/01/21 07:25:31;;;;;;;2.50;1.53;;;10.70;99.40;;;;;;5065727;28;20447;-74
2021/01/21 07:27:58;;;;;;;2.43;1.00;;;10.70;99.80;;;;;;5064771;28;20490;-74
2021/01/21 07:30:26;;;;;;;1.63;1.27;;;10.60;99.90;;;;;;5064132;28;20481;-74
2021/01/21 07:33:20;;;;;;;3.23;1.10;;;10.60;99.90;;;;;;5065765;28;20462;-74
2021/01/21 07:35:47;;;;;;;2.00;1.20;;;10.70;99.90;;;;;;5065678;28;20446;-73
2021/01/21 07:38:49;;;;;;;3.00;1.47;;;10.80;99.90;;;;;;5065750;28;20439;-73
2021/01/21 07:41:48;;;;;;;2.00;1.10;;;10.80;99.90;;;;;;5064766;28;20469;-72
2021/01/21 07:44:15;;;;;;;1.67;0.93;;;10.80;99.90;;;;;;5062852;28;20542;-70
2021/01/21 07:46:42;;;;;;;1.70;0.87;;;10.80;99.90;;;;;;5085763;28;20509;-69
2021/01/21 07:49:26;;;;;;;1.40;0.80;;;10.80;99.90;;;;;;5085061;28;20492;-71
2021/01/21 07:52:03;;;;;;;2.20;1.10;;;10.80;99.90;;;;;;5082990;28;20546;-75
2021/01/21 07:54:30;;;;;;;2.33;1.10;;;10.90;99.90;;;;;;5104981;28;20497;-72
2021/01/21 07:56:57;;;;;;;2.23;1.10;;;10.90;99.90;;;;;;5104294;28;20521;-72
2021/01/21 07:59:24;;;;;;;1.90;1.40;;;11.00;99.90;;;;;;5103598;28;20513;-72
2021/01/21 08:01:57;;;;;;;1.50;1.00;;;11.00;99.90;;;;;;5107104;28;20456;-72
2021/01/21 08:04:24;;;;;;;1.70;0.87;;;11.10;99.90;;;;;;5109116;28;20493;-69
2021/01/21 08:06:55;;;;;;;3.67;1.30;;;11.20;99.90;;;;;;5109210;28;20567;-69
2021/01/21 08:12:51;;;;;;;1.73;1.00;;;11.20;99.90;;;;;;5085384;28;20429;-70
2021/01/21 08:15:18;;;;;;;1.87;1.10;;;11.30;99.90;;;;;;5087776;28;20477;-71
2021/01/21 08:17:45;;;;;;;1.70;0.93;;;11.30;99.90;;;;;;5089046;28;20464;-69
2021/01/21 08:20:14;;;;;;;1.77;0.80;;;11.30;99.90;;;;;;5087492;28;20506;-70
2021/01/21 08:22:54;;;;;;;2.17;1.07;;;11.40;99.90;;;;;;5088288;28;20455;-71
2021/01/21 08:25:21;;;;;;;1.50;1.00;;;11.50;99.90;;;;;;5088473;28;20445;-72
2021/01/21 08:27:49;;;;;;;2.53;1.00;;;11.60;99.90;;;;;;5088503;28;20473;-72
2021/01/21 08:30:20;;;;;;;2.90;0.87;;;11.70;99.90;;;;;;5087924;28;20884;-73
2021/01/21 08:32:51;;;;;;;2.23;1.03;;;11.70;99.90;;;;;;5076130;28;20478;-70
2021/01/21 08:35:22;;;;;;;3.10;0.93;;;11.70;99.90;;;;;;5067766;28;20876;-70
2021/01/21 08:37:51;;;;;;;2.03;1.00;;;11.70;99.90;;;;;;5086203;28;20481;-72
2021/01/21 08:40:18;;;;;;;1.43;0.80;;;11.70;99.90;;;;;;5087510;28;20534;-72
2021/01/21 08:42:47;;;;;;;2.10;1.00;;;11.90;99.90;;;;;;5087747;28;20470;-71
2021/01/21 08:45:14;;;;;;;2.80;1.20;;;12.00;99.90;;;;;;5088396;28;20533;-70
2021/01/21 08:47:45;;;;;;;2.00;1.00;;;12.10;99.90;;;;;;5088362;28;21231;-71
2021/01/21 08:50:13;;;;;;;1.60;0.90;;;12.10;99.90;;;;;;5087529;28;20481;-70
2021/01/21 08:52:57;;;;;;;2.20;0.90;;;12.10;99.90;;;;;;5088120;28;20519;-70
2021/01/21 08:55:23;;;;;;;4.77;0.90;;;12.10;99.90;;;;;;5088307;28;20904;-71
2021/01/21 08:58:02;;;;;;;1.63;0.90;;;12.00;99.90;;;;;;5088257;28;20517;-71
2021/01/21 09:00:29;;;;;;;2.27;0.90;;;12.00;99.90;;;;;;5086852;28;20932;-72
2021/01/21 09:02:56;;;;;;;2.30;0.97;;;12.00;99.90;;;;;;5087459;28;20497;-71
2021/01/21 09:05:26;;;;;;;2.37;1.20;;;12.10;99.90;;;;;;5083011;28;20964;-73
2021/01/21 09:08:03;;;;;;;4.03;1.10;;;12.30;99.90;;;;;;5067963;28;21016;-74
2021/01/21 09:10:39;;;;;;;1.70;0.90;;;12.50;99.90;;;;;;5066316;28;20477;-72
2021/01/21 09:13:06;;;;;;;3.53;0.90;;;12.60;99.90;;;;;;5066679;28;20546;-71
2021/01/21 09:15:52;;;;;;;2.63;0.90;;;12.70;99.90;;;;;;5067380;28;20546;-72
2021/01/21 09:18:20;;;;;;;2.20;0.63;;;12.90;99.90;;;;;;5067057;28;20977;-72
2021/01/21 09:20:46;;;;;;;2.70;1.00;;;13.00;99.90;;;;;;5066572;28;20508;-70
2021/01/21 09:23:15;;;;;;;1.80;0.87;;;13.20;99.90;;;;;;5068264;28;20472;-70
2021/01/21 09:25:41;;;;;;;1.50;0.80;;;13.20;99.90;;;;;;5067228;28;20447;-70
2021/01/21 09:28:11;;;;;;;1.70;1.00;;;13.30;99.90;;;;;;5067671;28;20565;-71
2021/01/21 09:30:38;;;;;;;1.63;0.80;;;13.40;99.90;;;;;;5067180;28;20447;-71
2021/01/21 09:33:05;;;;;;;2.43;1.10;;;13.30;99.90;;;;;;5066622;28;20478;-69
2021/01/21 09:35:31;;;;;;;1.87;1.10;;;13.30;99.90;;;;;;5066952;28;20530;-70
2021/01/21 09:37:59;;;;;;;1.87;0.90;;;13.20;99.90;;;;;;5068015;28;20443;-69
2021/01/21 09:40:28;;;;;;;2.03;1.10;;;12.80;99.90;;;;;;5065914;28;20480;-69
2021/01/21 09:42:56;;;;;;;1.90;0.90;;;12.40;99.90;;;;;;5068119;28;20571;-68
2021/01/21 09:45:24;;;;;;;2.60;1.50;;;12.30;99.90;;;;;;5067834;28;20965;-68
2021/01/21 09:47:51;;;;;;;1.50;0.80;;;12.50;99.90;;;;;;5067412;28;20591;-70
2021/01/21 09:50:19;;;;;;;2.37;0.90;;;12.80;99.90;;;;;;5066216;28;20569;-71
2021/01/21 09:52:46;;;;;;;2.50;1.00;;;13.00;99.90;;;;;;5067405;28;20466;-72
2021/01/21 09:55:13;;;;;;;2.50;0.97;;;13.30;99.90;;;;;;5066955;28;20450;-69
2021/01/21 09:57:41;;;;;;;2.73;1.10;;;13.50;99.90;;;;;;5069244;28;20443;-71
2021/01/21 10:00:10;;;;;;;2.43;1.00;;;13.60;99.90;;;;;;5066466;28;20447;-72
2021/01/21 10:02:36;;;;;;;1.73;0.70;;;13.60;99.90;;;;;;5067196;28;20467;-72
2021/01/21 10:05:04;;;;;;;2.53;0.80;;;13.70;99.90;;;;;;5067360;28;20531;-72
2021/01/21 10:07:30;;;;;;;2.60;1.10;;;13.70;99.90;;;;;;5088083;28;20557;-71
2021/01/21 10:09:57;;;;;;;2.17;1.13;;;13.80;99.90;;;;;;5085429;28;20987;-71
2021/01/21 10:12:23;;;;;;;1.80;1.00;;;13.80;99.90;;;;;;5077704;28;20501;-71
2021/01/21 10:14:50;;;;;;;3.63;0.90;;;13.90;99.90;;;;;;5067806;28;20573;-71
2021/01/21 10:17:17;;;;;;;1.70;1.00;;;13.90;99.90;;;;;;5066916;28;20493;-69
2021/01/21 10:19:43;;;;;;;2.53;1.23;;;14.00;99.90;;;;;;5066313;28;20478;-70
2021/01/21 10:22:10;;;;;;;3.63;1.07;;;14.00;99.90;;;;;;5067302;28;20822;-72
2021/01/21 10:24:37;;;;;;;1.77;1.00;;;13.90;99.90;;;;;;5066121;28;20459;-71
2021/01/21 10:27:04;;;;;;;1.97;1.00;;;14.00;99.90;;;;;;5067089;28;20490;-72
2021/01/21 10:29:30;;;;;;;1.73;1.00;;;14.30;99.90;;;;;;5066485;28;20488;-73
2021/01/21 10:31:57;;;;;;;2.17;1.10;;;14.70;99.90;;;;;;5065971;28;20548;-71
2021/01/21 10:34:24;;;;;;;2.43;1.00;;;15.10;99.90;;;;;;5066648;28;20481;-71
2021/01/21 10:36:50;;;;;;;2.73;0.90;;;15.60;99.00;;;;;;5065803;28;20443;-72
2021/01/21 10:39:17;;;;;;;2.67;1.20;;;15.60;98.50;;;;;;5064958;28;21462;-71
2021/01/21 10:41:43;;;;;;;1.90;1.07;;;15.30;98.70;;;;;;5065790;28;20546;-72
2021/01/21 10:44:10;;;;;;;1.50;0.90;;;15.10;99.10;;;;;;5066378;28;20450;-73
2021/01/21 10:46:36;;;;;;;1.80;0.90;;;14.80;99.40;;;;;;5065864;28;20456;-73
2021/01/21 10:49:04;;;;;;;2.30;1.10;;;14.30;99.90;;;;;;5075838;28;20477;-73
2021/01/21 10:51:30;;;;;;;2.10;0.80;;;14.10;99.90;;;;;;5085387;28;21146;-73
2021/01/21 10:53:56;;;;;;;1.90;0.70;;;14.50;99.90;;;;;;5086267;28;20497;-73
2021/01/21 10:56:23;;;;;;;1.87;0.80;;;15.30;99.90;;;;;;5086562;28;21121;-72
2021/01/21 10:58:50;;;;;;;3.03;1.03;;;15.80;99.30;;;;;;5086375;28;20537;-72
2021/01/21 11:01:17;;;;;;;1.67;0.87;;;16.00;99.10;;;;;;5085093;28;20446;-72
2021/01/21 11:03:43;;;;;;;1.77;0.80;;;15.60;99.20;;;;;;5085872;28;20557;-72
2021/01/21 11:06:10;;;;;;;2.17;1.17;;;15.50;99.60;;;;;;5086485;28;20521;-72
2021/01/21 11:08:37;;;;;;;2.13;0.90;;;15.40;99.40;;;;;;5086494;28;21033;-72
2021/01/21 11:11:03;;;;;;;2.20;0.97;;;15.40;99.90;;;;;;5084714;28;20972;-73
2021/01/21 11:13:32;;;;;;;2.20;1.10;;;15.60;99.80;;;;;;5086282;28;20553;-72
2021/01/21 11:15:58;;;;;;;2.20;0.83;;;15.50;99.20;;;;;;5086096;28;20458;-72
2021/01/21 11:18:25;;;;;;;3.00;1.00;;;15.30;99.80;;;;;;5085337;28;20442;-73
2021/01/21 11:20:51;;;;;;;2.13;1.00;;;15.40;99.90;;;;;;5084908;28;20481;-73
2021/01/21 11:23:18;;;;;;;1.83;1.00;;;15.10;99.90;;;;;;5084614;28;21081;-73
2021/01/21 11:25:45;;;;;;;3.23;1.00;;;15.00;99.90;;;;;;5085877;28;20880;-71
2021/01/21 11:28:11;;;;;;;1.67;0.80;;;15.00;99.90;;;;;;5086844;28;20509;-72
2021/01/21 11:30:38;;;;;;;1.67;0.73;;;15.00;99.90;;;;;;5085785;28;20937;-72
2021/01/21 11:33:04;;;;;;;1.40;0.73;;;15.10;99.90;;;;;;5085564;28;21077;-71
2021/01/21 11:35:30;;;;;;;2.03;0.80;;;15.10;99.90;;;;;;5086851;28;20447;-71
2021/01/21 11:37:57;;;;;;;3.77;0.90;;;15.00;99.90;;;;;;5090879;28;20465;-71
2021/01/21 11:40:24;;;;;;;1.57;0.77;;;15.10;99.90;;;;;;5089990;28;20450;-72
2021/01/21 11:42:51;;;;;;;2.47;0.73;;;15.20;99.90;;;;;;5090901;28;20466;-71
2021/01/21 11:45:17;;;;;;;1.57;0.90;;;15.10;99.90;;;;;;5091195;28;20847;-71
2021/01/21 11:47:43;;;;;;;1.70;0.80;;;14.90;99.90;;;;;;5091186;28;20488;-71
2021/01/21 11:50:12;;;;;;;2.50;0.90;;;14.70;99.90;;;;;;5090133;28;20442;-73
2021/01/21 11:52:39;;;;;;;5.50;1.07;;;14.70;99.90;;;;;;5091227;28;20465;-72
2021/01/21 11:55:07;;;;;;;2.00;1.00;;;14.70;99.90;;;;;;5090823;28;20438;-71
2021/01/21 11:57:34;;;;;;;2.13;0.77;;;14.60;99.90;;;;;;5091029;28;20521;-72
2021/01/21 12:00:01;;;;;;;1.50;0.70;;;14.50;99.90;;;;;;5089728;28;20456;-70
2021/01/21 12:02:28;;;;;;;1.60;0.80;;;14.50;99.90;;;;;;5090530;28;20994;-73
2021/01/21 12:04:54;;;;;;;3.50;1.27;;;14.50;99.90;;;;;;5090525;28;20441;-72
2021/01/21 12:07:20;;;;;;;3.00;1.30;;;14.60;99.90;;;;;;5090939;28;20478;-73
2021/01/21 12:09:47;;;;;;;2.77;1.23;;;14.60;99.90;;;;;;5089953;28;20532;-73
2021/01/21 12:12:13;;;;;;;2.50;1.13;;;14.50;99.90;;;;;;5090540;28;20522;-72
2021/01/21 12:14:40;;;;;;;1.87;0.90;;;14.40;99.90;;;;;;5090684;28;20529;-74
2021/01/21 12:17:07;;;;;;;3.23;1.40;;;14.30;99.90;;;;;;5090588;28;20484;-73
2021/01/21 12:19:33;;;;;;;1.60;0.80;;;14.10;99.90;;;;;;5089580;28;20491;-72
2021/01/21 12:22:00;;;;;;;1.80;1.00;;;14.00;99.90;;;;;;5090584;28;21126;-73
2021/01/21 12:24:26;;;;;;;2.40;1.20;;;14.00;99.90;;;;;;5090439;28;20533;-72
2021/01/21 12:26:52;;;;;;;2.43;0.97;;;14.00;99.90;;;;;;5076150;28;20439;-72
2021/01/21 12:29:19;;;;;;;2.30;1.10;;;14.00;99.90;;;;;;5069621;28;20486;-74
2021/01/21 12:31:46;;;;;;;2.00;1.10;;;14.00;99.90;;;;;;5073562;28;20620;-73
2021/01/21 12:34:13;;;;;;;2.70;1.00;;;14.10;99.90;;;;;;5094483;28;20521;-73
2021/01/21 12:36:39;;;;;;;2.20;1.30;;;14.10;99.90;;;;;;5098703;28;20452;-73
2021/01/21 12:39:06;;;;;;;2.43;1.10;;;14.10;99.90;;;;;;5098266;28;20438;-73
2021/01/21 12:41:32;;;;;;;1.60;0.90;;;14.20;99.90;;;;;;5088030;28;21259;-73
2021/01/21 12:43:59;;;;;;;1.70;1.03;;;14.40;99.90;;;;;;5101823;28;20868;-75
2021/01/21 12:46:28;;;;;;;2.37;1.23;;;14.50;99.90;;;;;;5092748;28;20478;-73
2021/01/21 12:48:55;;;;;;;3.80;1.60;;;14.50;99.90;;;;;;5099367;28;20481;-73
2021/01/21 12:51:22;;;;;;;3.13;1.10;;;14.40;99.90;;;;;;5099573;28;20446;-74
2021/01/21 12:53:50;;;;;;;2.80;1.20;;;14.40;99.90;;;;;;5109408;28;21120;-74
2021/01/21 12:56:16;;;;;;;1.47;0.93;;;14.40;99.90;;;;;;5106339;28;20529;-72
2021/01/21 12:58:43;;;;;;;3.93;0.90;;;14.40;99.90;;;;;;5102905;28;20521;-71
2021/01/21 13:01:10;;;;;;;2.80;0.90;;;14.40;99.90;;;;;;5110297;28;20826;-73
2021/01/21 13:03:37;;;;;;;6.00;1.20;;;14.40;99.90;;;;;;5096949;28;20562;-73